Time;durP1;ratioP1;P1;durP2;ratioP2;P2;SDS_P1;SDS_P2;PMS_P1;PMS_P2;Temp;Humidity;BMP_temperature;BMP_pressure;BME280_temperature;BME280_humidity;BME280_pressure;Samples;Min_cycle;Max_cycle;Signal;HPM_P1;HPM_P2
2023/09/07 00:00:17;;;;;;;5.85;2.58;;;;;;;14.85;100.00;99083.09;4930951;29;20024;-81
2023/09/07 00:02:43;;;;;;;4.93;2.53;;;;;;;14.88;100.00;99074.47;4932857;29;20043;-80
2023/09/07 00:05:08;;;;;;;4.50;2.47;;;;;;;14.74;100.00;99062.88;4929859;29;20027;-81
2023/09/07 00:07:34;;;;;;;5.10;3.05;;;;;;;14.96;100.00;99109.63;4934328;29;20043;-81
2023/09/07 00:10:00;;;;;;;4.82;2.97;;;;;;;14.81;100.00;99093.63;4951045;29;20058;-81
2023/09/07 00:12:25;;;;;;;4.18;2.70;;;;;;;14.83;100.00;99087.97;4928585;29;20031;-81
2023/09/07 00:14:51;;;;;;;4.28;2.50;;;;;;;14.78;100.00;99082.34;4943125;29;20032;-81
2023/09/07 00:17:17;;;;;;;5.13;2.70;;;;;;;14.92;100.00;99108.41;4945468;29;20087;-81
2023/09/07 00:19:42;;;;;;;5.30;2.58;;;;;;;14.74;100.00;99089.28;4935132;29;20019;-81
2023/09/07 00:22:09;;;;;;;5.72;2.35;;;;;;;14.75;100.00;99090.94;4932521;29;20027;-81
2023/09/07 00:24:34;;;;;;;4.50;2.35;;;;;;;14.76;100.00;99095.34;4949426;29;20050;-81
2023/09/07 00:27:00;;;;;;;4.57;2.30;;;;;;;14.55;100.00;99058.47;4932093;29;20519;-81
2023/09/07 00:29:25;;;;;;;3.30;2.17;;;;;;;14.56;100.00;99060.94;4950246;29;20034;-80
2023/09/07 00:31:50;;;;;;;7.53;2.75;;;;;;;14.73;100.00;99066.69;4932102;29;20055;-81
2023/09/07 00:34:15;;;;;;;4.22;2.30;;;;;;;14.74;100.00;99083.84;4932738;29;20032;-80
2023/09/07 00:36:42;;;;;;;3.45;2.00;;;;;;;14.61;100.00;99063.84;4948459;29;20032;-81
2023/09/07 00:39:08;;;;;;;4.43;2.58;;;;;;;14.60;100.00;99078.53;4934129;29;20023;-81
2023/09/07 00:41:33;;;;;;;4.28;2.47;;;;;;;14.51;100.00;99076.25;4938524;29;20023;-81
2023/09/07 00:43:58;;;;;;;9.25;2.45;;;;;;;14.46;100.00;99085.09;4930264;29;20035;-81
2023/09/07 00:46:24;;;;;;;3.90;2.22;;;;;;;14.30;100.00;99083.75;4943451;29;20031;-81
2023/09/07 00:48:50;;;;;;;6.05;2.60;;;;;;;14.13;100.00;99079.91;4932387;29;20032;-81
2023/09/07 00:51:15;;;;;;;3.63;2.40;;;;;;;14.13;100.00;99088.06;4932200;29;20043;-81
2023/09/07 00:53:41;;;;;;;5.63;2.60;;;;;;;14.13;100.00;99091.63;4932477;29;20027;-81
2023/09/07 00:56:07;;;;;;;6.78;3.03;;;;;;;13.97;100.00;99073.94;4929470;29;20027;-82
2023/09/07 00:58:32;;;;;;;5.35;2.78;;;;;;;14.03;100.00;99100.25;4932146;29;20539;-81
2023/09/07 01:00:59;;;;;;;5.65;2.80;;;;;;;14.08;100.00;99118.66;4929328;29;20103;-81
2023/09/07 01:03:24;;;;;;;8.43;2.80;;;;;;;13.81;100.00;99074.44;4966867;28;20024;-81
2023/09/07 01:05:58;;;;;;;6.45;2.90;;;;;;;14.06;100.00;99109.88;4931465;29;20061;-82
2023/09/07 01:08:28;;;;;;;4.13;2.88;;;;;;;14.00;100.00;99102.59;4934467;29;20615;-81
2023/09/07 01:10:54;;;;;;;7.30;3.33;;;;;;;13.76;100.00;99075.09;4950694;29;20034;-80
2023/09/07 01:13:20;;;;;;;4.95;2.90;;;;;;;13.93;100.00;99105.31;4930380;29;20111;-81
2023/09/07 01:15:46;;;;;;;6.00;3.22;;;;;;;13.97;100.00;99094.88;4931317;29;20427;-80
2023/09/07 01:18:11;;;;;;;5.15;3.60;;;;;;;13.93;100.00;99088.19;4939436;29;20024;-81
2023/09/07 01:20:40;;;;;;;5.57;3.42;;;;;;;13.80;100.00;99067.31;4929251;29;20027;-81
2023/09/07 01:23:07;;;;;;;4.97;3.63;;;;;;;14.00;100.00;99102.59;4931446;29;20027;-81
2023/09/07 01:25:32;;;;;;;6.55;3.30;;;;;;;13.80;100.00;99079.03;4940067;29;20035;-82
2023/09/07 01:27:58;;;;;;;9.88;3.20;;;;;;;13.90;100.00;99102.22;4929455;29;20030;-82
2023/09/07 01:30:26;;;;;;;6.13;3.42;;;;;;;13.94;100.00;99098.03;4929997;29;20042;-81
2023/09/07 01:32:51;;;;;;;4.50;3.05;;;;;;;13.86;100.00;99079.22;4950364;29;20055;-81
2023/09/07 01:35:21;;;;;;;6.22;3.50;;;;;;;13.87;100.00;99089.06;4928575;29;20106;-81
2023/09/07 01:37:47;;;;;;;7.50;3.80;;;;;;;13.78;100.00;99073.00;4930411;29;20023;-80
2023/09/07 01:40:12;;;;;;;5.45;3.47;;;;;;;13.88;100.00;99099.69;4926501;29;20066;-81
2023/09/07 01:42:37;;;;;;;4.35;2.88;;;;;;;13.86;100.00;99098.25;4925723;29;20432;-80
2023/09/07 01:45:03;;;;;;;5.05;3.22;;;;;;;13.68;100.00;99086.22;4926230;29;20030;-81
2023/09/07 01:47:28;;;;;;;4.15;2.90;;;;;;;13.57;100.00;99070.56;4938012;29;20066;-82
2023/09/07 01:49:54;;;;;;;4.88;3.00;;;;;;;13.69;100.00;99095.22;4935695;29;20035;-81
2023/09/07 01:52:19;;;;;;;4.35;3.25;;;;;;;13.58;100.00;99075.81;4924106;29;20091;-81
2023/09/07 01:54:44;;;;;;;4.35;2.90;;;;;;;13.64;100.00;99090.41;4922068;29;20543;-81
2023/09/07 01:57:10;;;;;;;6.25;2.88;;;;;;;13.51;100.00;99083.16;4926674;29;20496;-81
2023/09/07 01:59:35;;;;;;;5.55;3.05;;;;;;;13.65;100.00;99108.41;4925415;29;20245;-81
2023/09/07 02:02:00;;;;;;;5.90;3.03;;;;;;;13.65;100.00;99111.13;4941219;29;20051;-81
2023/09/07 02:04:26;;;;;;;6.07;2.78;;;;;;;13.40;100.00;99081.13;4924050;29;20553;-81
2023/09/07 02:06:51;;;;;;;4.20;2.78;;;;;;;13.38;100.00;99089.47;4932407;29;20070;-81
2023/09/07 02:09:16;;;;;;;4.00;2.83;;;;;;;13.59;100.00;99109.25;4926763;29;20552;-80
2023/09/07 02:11:41;;;;;;;6.90;3.17;;;;;;;13.52;100.00;99109.31;4926765;29;20034;-81
2023/09/07 02:14:07;;;;;;;4.00;3.00;;;;;;;13.38;100.00;99107.66;4942553;29;20027;-81
2023/09/07 02:16:32;;;;;;;6.65;3.25;;;;;;;13.28;100.00;99091.81;4926179;29;20126;-81
2023/09/07 02:19:06;;;;;;;7.72;3.13;;;;;;;13.37;100.00;99123.13;4958991;29;20026;-81
2023/09/07 02:21:32;;;;;;;6.63;3.38;;;;;;;13.28;100.00;99119.00;4935273;29;20480;-82
2023/09/07 02:23:57;;;;;;;9.60;3.58;;;;;;;13.26;100.00;99112.06;4932103;29;20034;-81
2023/09/07 02:26:23;;;;;;;5.07;3.03;;;;;;;13.27;100.00;99111.88;4947707;29;20024;-82
2023/09/07 02:28:48;;;;;;;4.45;3.20;;;;;;;13.37;100.00;99108.72;4941769;29;20031;-81
2023/09/07 02:31:13;;;;;;;4.28;2.95;;;;;;;13.21;100.00;99101.00;4929657;29;20476;-82
2023/09/07 02:33:38;;;;;;;5.13;3.58;;;;;;;13.19;100.00;99108.53;4935904;29;20042;-81
2023/09/07 02:36:04;;;;;;;5.13;3.15;;;;;;;13.19;100.00;99103.09;4946788;29;20083;-81
2023/09/07 02:38:30;;;;;;;3.67;2.80;;;;;;;12.99;100.00;99084.13;4930219;29;20028;-81
2023/09/07 02:40:56;;;;;;;5.10;2.92;;;;;;;13.20;100.00;99132.75;4931333;29;20023;-81
2023/09/07 02:43:22;;;;;;;9.57;3.33;;;;;;;13.03;100.00;99107.94;4932156;29;20027;-81
2023/09/07 02:45:48;;;;;;;8.23;2.92;;;;;;;13.05;100.00;99113.16;4929068;29;20032;-81
2023/09/07 02:48:14;;;;;;;5.90;3.15;;;;;;;13.12;100.00;99113.97;4932407;29;20027;-81
2023/09/07 02:50:39;;;;;;;4.15;3.00;;;;;;;12.86;100.00;99083.13;4943064;29;20484;-80
2023/09/07 02:53:05;;;;;;;4.18;3.03;;;;;;;12.77;100.00;99084.38;4930234;29;20028;-81
2023/09/07 02:55:30;;;;;;;5.85;2.97;;;;;;;12.77;100.00;99088.97;4929047;29;20170;-81
2023/09/07 02:57:59;;;;;;;4.57;2.95;;;;;;;12.74;100.00;99090.22;4935855;29;20091;-82
2023/09/07 03:00:25;;;;;;;7.38;3.30;;;;;;;13.00;100.00;99131.97;4933363;29;20110;-81
2023/09/07 03:02:50;;;;;;;4.80;3.40;;;;;;;12.83;100.00;99118.81;4931121;29;20055;-81
2023/09/07 03:05:16;;;;;;;5.70;3.20;;;;;;;12.88;100.00;99113.59;4930725;29;20481;-81
2023/09/07 03:07:41;;;;;;;5.30;3.00;;;;;;;12.86;100.00;99115.69;4950927;29;20035;-81
2023/09/07 03:10:07;;;;;;;5.28;2.97;;;;;;;12.89;100.00;99107.13;4932503;29;20023;-82
2023/09/07 03:12:34;;;;;;;3.92;2.60;;;;;;;12.94;100.00;99118.19;4948579;29;20083;-82
2023/09/07 03:15:03;;;;;;;4.43;3.15;;;;;;;12.91;100.00;99102.28;4932510;29;20035;-81
2023/09/07 03:17:28;;;;;;;;;;;;;;;12.86;100.00;99107.56;4940254;29;20031;-81
2023/09/07 03:19:53;;;;;;;4.55;3.13;;;;;;;12.62;100.00;99086.47;4946995;29;19915;-81
2023/09/07 03:22:19;;;;;;;5.75;2.92;;;;;;;12.75;100.00;99091.88;4939299;29;20032;-81
2023/09/07 03:24:44;;;;;;;5.60;2.90;;;;;;;12.71;100.00;99093.38;4939643;29;20030;-82
2023/09/07 03:27:11;;;;;;;5.88;3.28;;;;;;;12.73;100.00;99104.81;4926728;29;20047;-82
2023/09/07 03:29:36;;;;;;;4.28;3.00;;;;;;;12.73;100.00;99115.69;4943623;29;20052;-82
2023/09/07 03:32:02;;;;;;;6.03;3.58;;;;;;;12.44;100.00;99087.09;4943033;29;20038;-81
2023/09/07 03:34:27;;;;;;;8.55;3.63;;;;;;;12.67;100.00;99119.25;4923646;29;20028;-82
2023/09/07 03:36:53;;;;;;;8.90;3.90;;;;;;;12.41;100.00;99085.63;4925881;29;20019;-82
2023/09/07 03:39:22;;;;;;;5.97;3.75;;;;;;;12.34;100.00;99082.09;4924676;29;20028;-81
2023/09/07 03:41:47;;;;;;;5.25;3.67;;;;;;;12.38;100.00;99087.94;4928701;29;20051;-82
2023/09/07 03:44:13;;;;;;;5.75;3.95;;;;;;;12.24;100.00;99065.41;4928131;29;20031;-81
2023/09/07 03:46:38;;;;;;;8.40;3.75;;;;;;;12.64;100.00;99130.53;4928571;29;20083;-82
2023/09/07 03:49:03;;;;;;;5.50;3.50;;;;;;;12.50;100.00;99102.56;4931630;29;20055;-82
2023/09/07 03:51:28;;;;;;;6.15;3.60;;;;;;;12.32;100.00;99078.75;4928784;29;20031;-82
2023/09/07 03:53:54;;;;;;;5.38;3.40;;;;;;;12.31;100.00;99087.91;4933873;29;20106;-80
2023/09/07 03:56:19;;;;;;;5.53;3.33;;;;;;;12.42;100.00;99111.75;4933076;29;20075;-81
2023/09/07 03:58:47;;;;;;;9.65;3.97;;;;;;;12.36;100.00;99107.13;4931176;29;20503;-82
2023/09/07 04:01:12;;;;;;;9.65;4.38;;;;;;;12.14;100.00;99067.69;4948545;29;20023;-81
2023/09/07 04:03:37;;;;;;;5.05;3.10;;;;;;;12.48;100.00;99116.31;4931139;29;20091;-80
2023/09/07 04:06:03;;;;;;;8.95;3.17;;;;;;;12.14;100.00;99062.25;4949069;29;20020;-81
2023/09/07 04:08:28;;;;;;;11.13;3.58;;;;;;;12.23;100.00;99069.13;4932191;29;20043;-81
2023/09/07 04:10:53;;;;;;;5.72;3.20;;;;;;;12.29;100.00;99073.75;4925383;29;20467;-81
2023/09/07 04:13:19;;;;;;;7.40;3.97;;;;;;;12.42;100.00;99092.75;4927810;29;20039;-81
2023/09/07 04:15:45;;;;;;;8.68;3.58;;;;;;;12.53;100.00;99106.72;4921650;29;20476;-75
2023/09/07 04:18:16;;;;;;;6.22;3.65;;;;;;;12.47;100.00;99106.53;4936309;29;20024;-74
2023/09/07 04:20:41;;;;;;;4.95;3.50;;;;;;;12.55;100.00;99101.91;4924010;29;20038;-74
2023/09/07 04:23:07;;;;;;;5.60;3.67;;;;;;;12.33;100.00;99082.28;4935785;29;20055;-74
2023/09/07 04:25:35;;;;;;;6.82;3.55;;;;;;;12.52;100.00;99094.19;4919339;29;20507;-71
2023/09/07 04:28:00;;;;;;;7.18;3.40;;;;;;;12.33;100.00;99093.97;4936440;29;20056;-73
2023/09/07 04:30:26;;;;;;;6.55;3.13;;;;;;;12.26;100.00;99099.41;4914269;29;20031;-73
2023/09/07 04:32:51;;;;;;;9.93;3.47;;;;;;;12.16;100.00;99092.72;4935574;29;20082;-73
2023/09/07 04:35:17;;;;;;;7.70;4.00;;;;;;;12.13;100.00;99093.09;4936318;29;20020;-72
2023/09/07 04:37:43;;;;;;;6.50;3.40;;;;;;;12.15;100.00;99118.97;4938220;29;20036;-69
2023/09/07 04:40:09;;;;;;;5.97;3.88;;;;;;;12.06;100.00;99109.38;4937810;29;20030;-72
2023/09/07 04:42:34;;;;;;;5.78;3.50;;;;;;;12.15;100.00;99121.69;4919577;29;20030;-73
2023/09/07 04:45:00;;;;;;;4.07;3.13;;;;;;;12.12;100.00;99118.56;4935719;29;20028;-72
2023/09/07 04:47:25;;;;;;;11.63;3.85;;;;;;;12.01;100.00;99099.16;4935932;29;20087;-72
2023/09/07 04:49:50;;;;;;;8.25;3.85;;;;;;;12.23;100.00;99120.66;4937025;29;20078;-73
2023/09/07 04:52:16;;;;;;;7.90;4.07;;;;;;;12.12;100.00;99110.44;4940522;29;20115;-72
2023/09/07 04:54:41;;;;;;;10.02;4.20;;;;;;;12.07;100.00;99122.72;4918810;29;20511;-71
2023/09/07 04:57:06;;;;;;;10.07;4.07;;;;;;;12.11;100.00;99119.63;4932778;29;20488;-72
2023/09/07 04:59:32;;;;;;;10.48;5.00;;;;;;;12.25;100.00;99132.16;4935124;29;20048;-73
2023/09/07 05:02:00;;;;;;;5.88;4.10;;;;;;;12.29;100.00;99136.16;4936786;29;20432;-72
2023/09/07 05:04:26;;;;;;;9.35;4.25;;;;;;;12.30;100.00;99136.97;4936284;29;20041;-72
2023/09/07 05:06:51;;;;;;;6.25;3.95;;;;;;;12.28;100.00;99129.84;4916265;29;20039;-73
2023/09/07 05:09:16;;;;;;;7.25;4.40;;;;;;;12.38;100.00;99106.91;4936133;29;20039;-73
2023/09/07 05:11:41;;;;;;;5.57;3.65;;;;;;;12.53;100.00;99120.31;4936973;29;20477;-75
2023/09/07 05:14:07;;;;;;;7.65;3.67;;;;;;;12.77;100.00;99137.84;4918105;29;20034;-75
2023/09/07 05:16:32;;;;;;;6.15;3.53;;;;;;;12.73;100.00;99110.25;4918556;29;20119;-73
2023/09/07 05:18:57;;;;;;;5.13;3.53;;;;;;;12.96;100.00;99138.88;4936260;29;20448;-72
2023/09/07 05:21:22;;;;;;;7.15;3.75;;;;;;;12.96;100.00;99128.00;4917368;29;20032;-72
2023/09/07 05:23:48;;;;;;;4.38;3.10;;;;;;;13.08;100.00;99142.63;4936344;29;20035;-72
2023/09/07 05:26:13;;;;;;;5.40;3.38;;;;;;;13.06;100.00;99131.13;4935404;29;20054;-74
2023/09/07 05:28:41;;;;;;;6.32;3.70;;;;;;;13.09;100.00;99119.84;4935788;29;20023;-74
2023/09/07 05:31:07;;;;;;;5.45;3.50;;;;;;;14.63;100.00;99110.75;4930222;29;20023;-76
2023/09/07 05:33:32;;;;;;;7.85;3.08;;;;;;;17.16;100.00;99074.63;4937078;29;20020;-76
2023/09/07 05:35:58;;;;;;;8.32;3.03;;;;;;;19.34;100.00;99080.75;4919065;29;20393;-76
2023/09/07 05:38:23;;;;;;;10.43;3.10;;;;;;;20.98;100.00;99052.19;4919560;29;20020;-76
2023/09/07 05:40:53;;;;;;;4.40;2.40;;;;;;;21.55;100.00;99061.63;4935615;29;20107;-78
2023/09/07 05:43:19;;;;;;;5.78;2.85;;;;;;;22.71;100.00;99084.19;4917483;29;20023;-73
2023/09/07 05:45:44;;;;;;;4.68;2.75;;;;;;;23.09;100.00;99074.53;4934911;29;20083;-74
2023/09/07 05:48:09;;;;;;;4.80;2.58;;;;;;;23.59;100.00;99066.38;4935019;29;20103;-73
2023/09/07 05:50:36;;;;;;;3.17;2.15;;;;;;;24.32;100.00;99076.78;4931087;29;20036;-73
2023/09/07 05:53:03;;;;;;;5.15;2.60;;;;;;;25.32;100.00;99080.13;4931774;29;20023;-73
2023/09/07 05:55:28;;;;;;;6.95;2.33;;;;;;;26.51;89.97;99085.75;4935217;29;20503;-73
2023/09/07 05:57:55;;;;;;;4.70;2.30;;;;;;;27.30;78.27;99078.34;4933127;29;20036;-77
2023/09/07 06:00:20;;;;;;;4.05;2.28;;;;;;;27.01;75.07;99072.16;4939841;29;20122;-79
2023/09/07 06:02:46;;;;;;;5.15;1.95;;;;;;;27.43;73.57;99078.63;4941630;29;20067;-79
2023/09/07 06:05:12;;;;;;;3.60;1.88;;;;;;;29.21;68.31;99072.88;4924942;29;20091;-78
2023/09/07 06:07:37;;;;;;;5.78;2.80;;;;;;;30.87;59.82;99054.50;4917584;29;20059;-77
2023/09/07 06:10:05;;;;;;;8.27;2.60;;;;;;;31.65;56.46;99085.81;4939635;29;20035;-75
2023/09/07 06:12:32;;;;;;;3.75;2.38;;;;;;;30.65;56.19;99075.84;4936380;29;20542;-75
2023/09/07 06:14:58;;;;;;;5.93;2.45;;;;;;;30.21;58.22;99082.56;4933289;29;20028;-74
2023/09/07 06:17:23;;;;;;;5.40;2.25;;;;;;;30.88;57.65;99084.91;4934903;29;20491;-73
2023/09/07 06:19:48;;;;;;;2.97;2.60;;;;;;;31.13;55.67;99083.19;4933570;29;20039;-74
2023/09/07 06:22:14;;;;;;;7.93;2.67;;;;;;;32.19;52.44;99073.19;4910589;29;20036;-74
2023/09/07 06:24:39;;;;;;;5.63;2.58;;;;;;;32.97;51.47;99086.53;4934139;29;20035;-74
2023/09/07 06:27:04;;;;;;;8.82;2.90;;;;;;;33.90;48.91;99086.91;4933104;29;20046;-74
2023/09/07 06:29:30;;;;;;;4.15;2.63;;;;;;;35.26;46.57;99074.06;4933627;29;20027;-74
2023/09/07 06:31:55;;;;;;;4.07;2.50;;;;;;;35.62;44.55;99074.19;4930315;29;20035;-75
2023/09/07 06:34:20;;;;;;;7.07;3.17;;;;;;;35.63;44.70;99081.44;4917656;29;20024;-74
2023/09/07 06:36:45;;;;;;;6.97;3.33;;;;;;;35.44;45.24;99071.72;4914828;29;20031;-74
2023/09/07 06:39:11;;;;;;;9.38;2.95;;;;;;;35.63;43.98;99078.63;4917470;29;20034;-74
2023/09/07 06:41:36;;;;;;;3.90;2.37;;;;;;;36.92;42.56;99073.88;4939620;29;20507;-74
2023/09/07 06:44:01;;;;;;;6.07;2.60;;;;;;;36.48;42.35;99067.72;4916720;29;20428;-74
2023/09/07 06:46:27;;;;;;;5.78;2.80;;;;;;;37.24;42.40;99073.69;4918990;29;20286;-74
2023/09/07 06:48:52;;;;;;;5.95;2.78;;;;;;;37.13;41.43;99067.88;4933759;29;20031;-77
2023/09/07 06:51:17;;;;;;;4.35;2.40;;;;;;;36.94;41.79;99056.56;4921560;29;20499;-74
2023/09/07 06:53:43;;;;;;;3.30;2.40;;;;;;;35.64;43.38;99075.47;4936071;28;20028;-75
2023/09/07 06:56:08;;;;;;;5.47;2.78;;;;;;;34.87;44.55;99056.94;4934077;29;20760;-74
2023/09/07 06:58:34;;;;;;;6.25;2.50;;;;;;;35.50;43.55;99053.38;4921304;29;20042;-78
2023/09/07 07:01:00;;;;;;;6.97;2.65;;;;;;;34.40;45.39;99070.78;4937156;29;20110;-78
2023/09/07 07:03:27;;;;;;;4.07;2.42;;;;;;;35.96;43.34;99090.31;4917593;29;20444;-77
2023/09/07 07:05:52;;;;;;;4.22;2.20;;;;;;;35.77;43.18;99082.63;4919133;29;20016;-73
2023/09/07 07:08:17;;;;;;;3.30;2.10;;;;;;;35.47;43.06;99090.69;4935405;29;20042;-73
2023/09/07 07:10:43;;;;;;;4.00;2.38;;;;;;;36.51;41.73;99072.63;4932229;29;20031;-74
2023/09/07 07:13:08;;;;;;;4.57;2.60;;;;;;;35.14;43.12;99093.03;4932958;29;20130;-73
2023/09/07 07:15:35;;;;;;;3.53;2.40;;;;;;;34.65;44.58;99089.25;4935126;29;20036;-75
2023/09/07 07:18:01;;;;;;;5.95;2.85;;;;;;;35.75;43.54;99084.97;4941219;29;20540;-74
2023/09/07 07:20:26;;;;;;;3.58;2.25;;;;;;;36.34;42.34;99077.53;4933925;29;20031;-75
2023/09/07 07:22:51;;;;;;;2.85;2.30;;;;;;;36.74;41.42;99096.09;4930804;29;20136;-75
2023/09/07 07:25:17;;;;;;;4.80;2.50;;;;;;;36.74;40.91;99082.00;4936411;29;20038;-75
2023/09/07 07:27:42;;;;;;;3.95;2.60;;;;;;;37.48;40.40;99104.34;4933647;29;21032;-74
2023/09/07 07:30:08;;;;;;;2.70;2.10;;;;;;;36.36;41.96;99085.59;4934272;29;20024;-74
2023/09/07 07:32:33;;;;;;;3.28;2.28;;;;;;;36.68;40.34;99079.84;4933221;29;20032;-76
2023/09/07 07:34:59;;;;;;;4.15;2.20;;;;;;;34.26;43.52;99088.03;4934408;29;20023;-76
2023/09/07 07:37:24;;;;;;;2.88;2.00;;;;;;;37.05;39.93;99083.84;4937754;29;20032;-76
2023/09/07 07:39:49;;;;;;;4.83;2.47;;;;;;;36.13;41.59;99082.66;4937549;29;20059;-77
2023/09/07 07:42:15;;;;;;;3.80;2.60;;;;;;;35.82;41.82;99077.88;4933385;29;20283;-75
2023/09/07 07:44:40;;;;;;;3.85;2.40;;;;;;;36.34;41.48;99076.69;4943501;29;20033;-75
2023/09/07 07:47:05;;;;;;;4.35;2.22;;;;;;;37.23;40.28;99086.16;4922879;29;20027;-75
2023/09/07 07:49:32;;;;;;;3.67;2.50;;;;;;;38.54;38.67;99066.88;4961658;28;20060;-75
2023/09/07 07:51:58;;;;;;;3.90;2.30;;;;;;;37.16;40.34;99078.41;4938828;29;20035;-74
2023/09/07 07:54:24;;;;;;;3.47;2.28;;;;;;;36.41;41.33;99069.19;4936901;29;20059;-74
2023/09/07 07:56:50;;;;;;;4.80;2.40;;;;;;;37.57;39.61;99075.88;4936772;29;20049;-76
2023/09/07 07:59:15;;;;;;;4.85;2.42;;;;;;;37.37;40.49;99071.50;4937220;29;20440;-73
2023/09/07 08:01:41;;;;;;;3.92;2.10;;;;;;;37.93;38.64;99080.09;4920752;29;20118;-71
2023/09/07 08:04:07;;;;;;;2.35;2.03;;;;;;;38.97;38.04;99069.41;4920195;29;20023;-75
2023/09/07 08:06:33;;;;;;;2.28;2.00;;;;;;;40.30;36.14;99086.34;4920973;29;20031;-75
2023/09/07 08:08:58;;;;;;;2.20;2.00;;;;;;;37.27;39.44;99079.41;4940371;29;20110;-76
2023/09/07 08:11:23;;;;;;;2.88;2.22;;;;;;;36.75;39.73;99086.44;4938514;29;20487;-76
2023/09/07 08:13:49;;;;;;;2.85;1.98;;;;;;;38.89;38.40;99060.03;4930127;29;20387;-76
2023/09/07 08:16:14;;;;;;;3.90;2.20;;;;;;;38.70;38.75;99085.63;4936611;29;20392;-72
2023/09/07 08:18:41;;;;;;;4.00;2.20;;;;;;;38.09;39.97;99074.31;4935490;29;20031;-77
2023/09/07 08:21:06;;;;;;;6.75;2.15;;;;;;;40.17;36.25;99056.69;4940917;29;20283;-78
2023/09/07 08:23:31;;;;;;;3.73;2.27;;;;;;;38.66;37.60;99074.28;4942258;29;20083;-79
2023/09/07 08:25:58;;;;;;;4.03;2.20;;;;;;;39.62;37.81;99068.03;4923721;29;20319;-79
2023/09/07 08:28:25;;;;;;;4.32;2.17;;;;;;;38.99;37.35;99065.00;4937802;29;20292;-82
2023/09/07 08:30:54;;;;;;;4.20;2.20;;;;;;;40.38;36.17;99067.34;4924934;29;20111;-76
2023/09/07 08:33:23;;;;;;;4.50;1.90;;;;;;;40.95;35.51;99069.59;4944267;29;20515;-76
2023/09/07 08:35:57;;;;;;;3.72;2.20;;;;;;;40.29;36.49;99064.84;4937412;29;20027;-75
2023/09/07 08:38:26;;;;;;;3.83;2.00;;;;;;;42.06;35.07;99069.69;4941168;29;20031;-76
2023/09/07 08:40:54;;;;;;;3.80;2.20;;;;;;;42.54;33.97;99054.13;4919817;29;20087;-76
2023/09/07 08:43:20;;;;;;;4.80;2.20;;;;;;;42.37;34.32;99056.63;4918358;29;20024;-75
2023/09/07 08:45:50;;;;;;;3.90;2.08;;;;;;;42.25;34.08;99069.22;4931824;29;20165;-75
2023/09/07 08:48:18;;;;;;;3.95;2.10;;;;;;;41.70;34.66;99055.50;4935322;29;20407;-75
2023/09/07 08:50:49;;;;;;;3.20;2.60;;;;;;;43.05;33.32;99078.25;4937282;29;20031;-75
2023/09/07 08:53:18;;;;;;;5.88;2.13;;;;;;;40.49;35.56;99071.03;4934775;29;20055;-74
2023/09/07 08:55:43;;;;;;;3.38;1.98;;;;;;;39.35;36.74;99064.53;4936065;28;20036;-74
2023/09/07 08:58:09;;;;;;;2.90;2.33;;;;;;;40.08;36.57;99073.22;4934110;29;20481;-73
2023/09/07 09:00:35;;;;;;;4.75;2.42;;;;;;;40.72;35.76;99084.94;4909200;29;20496;-73
2023/09/07 09:03:00;;;;;;;5.90;2.17;;;;;;;41.66;35.42;99077.44;4930507;29;20043;-73
2023/09/07 09:05:28;;;;;;;3.60;2.10;;;;;;;41.94;34.00;99073.75;4911830;29;20051;-72
2023/09/07 09:08:04;;;;;;;5.63;2.30;;;;;;;40.44;35.64;99062.09;4927989;29;20036;-72
2023/09/07 09:10:29;;;;;;;3.25;2.00;;;;;;;41.05;35.09;99068.78;4930366;29;20032;-73
2023/09/07 09:12:54;;;;;;;4.60;2.20;;;;;;;41.77;33.99;99072.56;4934510;29;20035;-73
2023/09/07 09:15:22;;;;;;;3.10;1.83;;;;;;;41.84;35.27;99077.41;4935212;29;20019;-73
2023/09/07 09:17:47;;;;;;;3.53;1.90;;;;;;;41.90;34.56;99083.50;4918287;29;20271;-72
2023/09/07 09:20:24;;;;;;;2.63;2.03;;;;;;;41.53;34.42;99074.19;4934691;29;20034;-72
2023/09/07 09:22:53;;;;;;;7.20;2.25;;;;;;;40.69;34.67;99077.22;4931482;29;20035;-72
2023/09/07 09:25:19;;;;;;;8.68;2.30;;;;;;;41.93;34.39;99075.00;4933997;29;20042;-72
2023/09/07 09:27:47;;;;;;;4.95;2.03;;;;;;;43.48;33.36;99066.59;4935135;29;20036;-72
2023/09/07 09:30:15;;;;;;;5.20;2.20;;;;;;;42.72;34.93;99071.91;4934183;29;20036;-73
2023/09/07 09:32:41;;;;;;;5.25;2.60;;;;;;;42.86;33.93;99059.66;4933881;29;20038;-73
2023/09/07 09:35:07;;;;;;;6.72;2.15;;;;;;;43.44;33.31;99055.22;4934796;29;20106;-73
2023/09/07 09:37:33;;;;;;;2.60;1.50;;;;;;;43.32;33.10;99050.84;4935125;29;20087;-72
2023/09/07 09:40:01;;;;;;;3.25;2.10;;;;;;;41.55;34.86;99057.53;4929458;29;20032;-73
2023/09/07 09:42:27;;;;;;;2.70;1.80;;;;;;;43.21;33.91;99058.66;4935077;29;20035;-72
2023/09/07 09:44:54;;;;;;;2.40;1.90;;;;;;;42.23;34.25;99057.44;4933714;29;20028;-73
2023/09/07 09:47:21;;;;;;;3.28;2.05;;;;;;;43.65;32.04;99057.09;4934899;29;20424;-72
2023/09/07 09:49:48;;;;;;;3.47;2.13;;;;;;;42.77;32.99;99042.25;4933067;29;20055;-72
2023/09/07 09:52:15;;;;;;;3.45;1.80;;;;;;;42.50;34.47;99053.31;4935419;29;20107;-72
2023/09/07 09:54:42;;;;;;;3.58;2.10;;;;;;;41.31;34.13;99053.44;4932492;29;20506;-72
2023/09/07 09:57:07;;;;;;;3.60;2.05;;;;;;;41.28;34.81;99048.59;4933631;29;20027;-72
2023/09/07 09:59:33;;;;;;;4.43;2.03;;;;;;;41.23;34.14;99040.47;4932134;29;20034;-72
2023/09/07 10:02:01;;;;;;;3.22;2.03;;;;;;;43.14;32.91;99046.47;4938882;29;20263;-72
2023/09/07 10:04:29;;;;;;;4.70;2.05;;;;;;;42.46;33.48;99048.44;4937169;29;20408;-72
2023/09/07 10:07:01;;;;;;;3.40;1.80;;;;;;;42.11;33.19;99040.84;4938666;29;20028;-72
2023/09/07 10:09:33;;;;;;;2.17;1.83;;;;;;;42.96;34.45;99035.22;4935951;29;20035;-72
2023/09/07 10:11:59;;;;;;;4.55;1.92;;;;;;;42.95;34.54;99033.59;4938450;29;20035;-72
2023/09/07 10:14:25;;;;;;;5.55;2.15;;;;;;;42.66;33.08;99036.59;4937085;29;20031;-72
2023/09/07 10:16:55;;;;;;;3.00;2.35;;;;;;;40.80;34.55;99039.56;4935318;29;20031;-72
2023/09/07 10:19:22;;;;;;;5.15;1.83;;;;;;;41.62;34.28;99038.88;4936782;29;20163;-72
2023/09/07 10:21:48;;;;;;;4.57;2.00;;;;;;;41.43;34.12;99038.06;4934070;29;20028;-72
2023/09/07 10:24:30;;;;;;;3.22;2.30;;;;;;;41.66;34.00;99040.50;4932002;29;20035;-73
2023/09/07 10:27:06;;;;;;;3.47;1.90;;;;;;;43.87;33.12;99039.78;4937949;29;20058;-73
2023/09/07 10:30:12;;;;;;;4.22;1.77;;;;;;;44.64;31.51;99030.75;4932335;29;20392;-73
2023/09/07 10:32:41;;;;;;;2.58;1.80;;;;;;;43.12;32.24;99022.06;4906972;29;20051;-73
2023/09/07 10:35:18;;;;;;;1.95;1.75;;;;;;;41.54;33.67;99021.84;4932303;29;20110;-73
2023/09/07 10:37:48;;;;;;;5.32;1.85;;;;;;;42.33;33.41;99021.66;4934283;29;20024;-73
2023/09/07 10:40:23;;;;;;;2.13;1.75;;;;;;;42.92;32.88;99018.16;4935314;29;20038;-73
2023/09/07 10:42:49;;;;;;;2.55;1.60;;;;;;;43.94;32.65;99006.31;4915600;29;20019;-73
2023/09/07 10:45:16;;;;;;;2.28;1.92;;;;;;;44.67;31.63;99003.38;4930602;29;20042;-73
2023/09/07 10:47:45;;;;;;;4.43;1.80;;;;;;;44.21;32.25;98994.22;4929911;29;20030;-73
2023/09/07 10:50:14;;;;;;;4.38;1.80;;;;;;;43.88;33.39;98996.59;4926616;29;20480;-73
2023/09/07 10:52:41;;;;;;;2.40;1.83;;;;;;;43.71;32.69;98997.59;4934498;29;20437;-73
2023/09/07 10:55:08;;;;;;;2.90;1.70;;;;;;;44.47;32.34;99001.22;4934388;29;20028;-73
2023/09/07 10:57:41;;;;;;;6.75;1.80;;;;;;;45.88;31.40;98998.56;4933215;29;20032;-74
2023/09/07 11:00:10;;;;;;;2.45;1.80;;;;;;;45.38;30.10;98987.22;4932268;29;20496;-73
2023/09/07 11:02:36;;;;;;;3.72;2.00;;;;;;;43.50;31.46;98987.19;4934182;29;20500;-73
2023/09/07 11:05:02;;;;;;;2.30;1.80;;;;;;;42.61;31.89;98991.50;4933617;29;20091;-73
2023/09/07 11:07:28;;;;;;;5.70;2.15;;;;;;;42.24;33.33;98990.84;4931788;29;20514;-74
2023/09/07 11:09:54;;;;;;;3.08;1.98;;;;;;;45.02;31.14;98984.97;4934396;29;20070;-74
2023/09/07 11:12:21;;;;;;;2.80;1.98;;;;;;;44.37;30.23;98968.75;4938142;29;20042;-73
2023/09/07 11:14:48;;;;;;;2.78;1.70;;;;;;;43.18;32.54;98979.75;4932264;29;20028;-73
2023/09/07 11:17:13;;;;;;;2.37;1.80;;;;;;;43.50;31.36;98985.16;4935443;29;20374;-73
2023/09/07 11:19:38;;;;;;;2.92;1.80;;;;;;;42.78;32.37;98979.19;4946476;28;20035;-73
2023/09/07 11:22:04;;;;;;;2.33;1.70;;;;;;;43.35;32.47;98983.66;4938360;29;20496;-73
2023/09/07 11:24:31;;;;;;;3.28;2.00;;;;;;;43.33;31.54;98975.53;4933509;29;20027;-74